Time;durP1;ratioP1;P1;durP2;ratioP2;P2;SDS_P1;SDS_P2;PMS_P1;PMS_P2;Temp;Humidity;BMP_temperature;BMP_pressure;BME280_temperature;BME280_humidity;BME280_pressure;Samples;Min_cycle;Max_cycle;Signal;HPM_P1;HPM_P2
2023/11/04 00:01:17;;;;;;;1.90;1.80;;;;;;;;;;5050455;28;20092;-80
2023/11/04 00:03:53;;;;;;;2.10;2.00;;;;;;;;;;5045771;28;20052;-79
2023/11/04 00:06:23;;;;;;;2.20;2.10;;;;;;;;;;5048105;28;20053;-80
2023/11/04 00:08:52;;;;;;;1.80;1.73;;;;;;;;;;5044598;28;20053;-80
2023/11/04 00:11:22;;;;;;;2.05;1.80;;;;;;;;;;5052649;28;20119;-79
2023/11/04 00:13:50;;;;;;;1.85;1.75;;;;;;;;;;5051624;28;20051;-80
2023/11/04 00:16:19;;;;;;;2.15;2.05;;;;;;;;;;5041835;28;20123;-78
2023/11/04 00:18:48;;;;;;;2.17;2.08;;;;;;;;;;5044413;28;20102;-80
2023/11/04 00:21:18;;;;;;;2.10;2.00;;;;;;;;;;5049295;28;20129;-80
2023/11/04 00:23:46;;;;;;;2.13;2.03;;;;;;;;;;5040108;28;20541;-79
2023/11/04 00:26:14;;;;;;;2.38;2.28;;;;;;;;;;5051360;28;20559;-80
2023/11/04 00:28:43;;;;;;;2.03;1.92;;;;;;;;;;5051875;28;20049;-79
2023/11/04 00:31:11;;;;;;;1.92;1.83;;;;;;;;;;5051736;28;20041;-80
2023/11/04 00:33:40;;;;;;;2.13;2.03;;;;;;;;;;5049945;28;20045;-80
2023/11/04 00:36:09;;;;;;;2.15;2.05;;;;;;;;;;5049286;28;20102;-78
2023/11/04 00:38:38;;;;;;;2.38;2.28;;;;;;;;;;5048790;28;20045;-77
2023/11/04 00:41:07;;;;;;;2.10;2.00;;;;;;;;;;5052412;28;20072;-78
2023/11/04 00:43:36;;;;;;;2.03;1.92;;;;;;;;;;5049176;28;20079;-79
2023/11/04 00:46:05;;;;;;;2.10;2.00;;;;;;;;;;5046224;28;20427;-79
2023/11/04 00:48:33;;;;;;;2.08;1.98;;;;;;;;;;5050986;28;20111;-78
2023/11/04 00:51:04;;;;;;;2.10;2.00;;;;;;;;;;5047162;28;20048;-78
2023/11/04 00:53:32;;;;;;;2.00;1.90;;;;;;;;;;5051211;28;20045;-79
2023/11/04 00:56:02;;;;;;;2.08;1.98;;;;;;;;;;5051820;28;20048;-79
2023/11/04 00:58:31;;;;;;;2.08;1.98;;;;;;;;;;5048650;28;20446;-79
2023/11/04 01:00:59;;;;;;;2.00;1.90;;;;;;;;;;5048076;28;20056;-77
2023/11/04 01:03:27;;;;;;;2.20;2.10;;;;;;;;;;5050128;28;20061;-78
2023/11/04 01:05:56;;;;;;;1.95;1.80;;;;;;;;;;5046979;28;20052;-79
2023/11/04 01:08:24;;;;;;;2.33;2.22;;;;;;;;;;5050058;28;20048;-79
2023/11/04 01:10:53;;;;;;;2.40;2.30;;;;;;;;;;5050169;28;20037;-79
2023/11/04 01:13:23;;;;;;;1.77;1.75;;;;;;;;;;5050422;28;20045;-79
2023/11/04 01:15:52;;;;;;;2.10;2.00;;;;;;;;;;5050662;28;20118;-78
2023/11/04 01:18:20;;;;;;;2.17;2.08;;;;;;;;;;5049268;28;20053;-78
2023/11/04 01:20:48;;;;;;;2.08;1.98;;;;;;;;;;5045442;28;20041;-77
2023/11/04 01:23:17;;;;;;;2.28;2.17;;;;;;;;;;5049553;28;20094;-78
2023/11/04 01:25:45;;;;;;;1.77;1.75;;;;;;;;;;5046056;28;20060;-78
2023/11/04 01:28:14;;;;;;;1.95;1.85;;;;;;;;;;5050814;28;20045;-77
2023/11/04 01:30:43;;;;;;;2.00;1.90;;;;;;;;;;5042212;28;20463;-78
2023/11/04 01:33:12;;;;;;;2.20;2.10;;;;;;;;;;5050737;28;20074;-77
2023/11/04 01:35:40;;;;;;;1.73;1.67;;;;;;;;;;5049581;28;20037;-77
2023/11/04 01:38:09;;;;;;;2.47;2.38;;;;;;;;;;5042977;28;20115;-77
2023/11/04 01:40:37;;;;;;;2.17;2.08;;;;;;;;;;5046312;28;20049;-78
2023/11/04 01:43:05;;;;;;;2.08;1.98;;;;;;;;;;5048613;28;20053;-77
2023/11/04 01:45:34;;;;;;;2.42;2.33;;;;;;;;;;5047990;28;20144;-78
2023/11/04 01:48:05;;;;;;;2.28;2.17;;;;;;;;;;5038429;28;20057;-78
2023/11/04 01:50:33;;;;;;;2.25;2.10;;;;;;;;;;5043275;28;20144;-77
2023/11/04 01:53:02;;;;;;;2.30;2.20;;;;;;;;;;5049516;28;20045;-78
2023/11/04 01:55:31;;;;;;;2.00;1.90;;;;;;;;;;5048545;28;20053;-78
2023/11/04 01:58:00;;;;;;;2.25;2.15;;;;;;;;;;5045488;28;20057;-77
2023/11/04 02:00:28;;;;;;;2.45;2.17;;;;;;;;;;5050448;28;20051;-77
2023/11/04 02:02:57;;;;;;;2.15;2.05;;;;;;;;;;5043125;28;20045;-77
2023/11/04 02:05:27;;;;;;;2.30;2.20;;;;;;;;;;5045895;28;20048;-78
2023/11/04 02:07:57;;;;;;;2.33;2.22;;;;;;;;;;5040947;28;20118;-78
2023/11/04 02:10:25;;;;;;;1.75;1.75;;;;;;;;;;5045779;28;20080;-78
2023/11/04 02:12:53;;;;;;;2.22;2.13;;;;;;;;;;5038501;28;20045;-79
2023/11/04 02:15:22;;;;;;;1.90;1.80;;;;;;;;;;5047684;28;20099;-78
2023/11/04 02:17:50;;;;;;;2.13;2.03;;;;;;;;;;5045735;28;20051;-78
2023/11/04 02:20:21;;;;;;;2.17;2.08;;;;;;;;;;5050024;28;20091;-78
2023/11/04 02:22:51;;;;;;;2.13;2.00;;;;;;;;;;5044026;28;20053;-78
2023/11/04 02:25:19;;;;;;;2.08;1.98;;;;;;;;;;5043910;28;20122;-78
2023/11/04 02:27:47;;;;;;;1.67;1.67;;;;;;;;;;5043183;28;20401;-78
2023/11/04 02:30:16;;;;;;;2.30;2.20;;;;;;;;;;5049753;28;20071;-78
2023/11/04 02:32:44;;;;;;;1.90;1.83;;;;;;;;;;5046500;28;20127;-78
2023/11/04 02:35:15;;;;;;;2.38;2.28;;;;;;;;;;5048704;28;20045;-78
2023/11/04 02:37:44;;;;;;;2.42;2.33;;;;;;;;;;5048315;28;20044;-78
2023/11/04 02:40:14;;;;;;;2.13;2.00;;;;;;;;;;5046037;28;20052;-79
2023/11/04 02:42:42;;;;;;;2.00;1.90;;;;;;;;;;5049298;28;20055;-78
2023/11/04 02:45:11;;;;;;;2.00;1.90;;;;;;;;;;5049009;28;20053;-78
2023/11/04 02:47:40;;;;;;;1.77;1.67;;;;;;;;;;5039772;28;20502;-78
2023/11/04 02:50:09;;;;;;;2.28;2.17;;;;;;;;;;5048965;28;20498;-78
2023/11/04 02:52:37;;;;;;;2.17;2.08;;;;;;;;;;5048385;28;20057;-78
2023/11/04 02:55:06;;;;;;;2.08;1.98;;;;;;;;;;5037698;28;20073;-77
2023/11/04 02:57:36;;;;;;;1.92;1.90;;;;;;;;;;5042516;28;20121;-77
2023/11/04 03:00:05;;;;;;;2.50;2.40;;;;;;;;;;5048554;28;20136;-76
2023/11/04 03:02:33;;;;;;;2.38;2.28;;;;;;;;;;5046446;28;20119;-77
2023/11/04 03:05:02;;;;;;;1.90;1.80;;;;;;;;;;5048014;28;20060;-76
2023/11/04 03:07:30;;;;;;;2.13;2.03;;;;;;;;;;5037728;28;20499;-76
2023/11/04 03:09:59;;;;;;;1.90;1.80;;;;;;;;;;5047858;28;20077;-76
2023/11/04 03:12:27;;;;;;;2.22;2.13;;;;;;;;;;5048727;28;20041;-75
2023/11/04 03:14:57;;;;;;;2.33;2.22;;;;;;;;;;5047720;28;20056;-77
2023/11/04 03:17:25;;;;;;;2.30;2.20;;;;;;;;;;5048170;28;20104;-77
2023/11/04 03:19:54;;;;;;;2.05;2.00;;;;;;;;;;5047898;28;20044;-77
2023/11/04 03:22:22;;;;;;;2.10;2.00;;;;;;;;;;5047040;28;20057;-77
2023/11/04 03:24:50;;;;;;;1.90;1.80;;;;;;;;;;5049031;28;20560;-78
2023/11/04 03:27:19;;;;;;;1.75;1.75;;;;;;;;;;5048042;28;20133;-77
2023/11/04 03:29:48;;;;;;;2.22;2.13;;;;;;;;;;5044088;28;20587;-77
2023/11/04 03:32:18;;;;;;;1.92;1.83;;;;;;;;;;5048106;28;20037;-77
2023/11/04 03:34:46;;;;;;;3.08;1.98;;;;;;;;;;5048764;28;20494;-77
2023/11/04 03:37:14;;;;;;;2.00;1.90;;;;;;;;;;5043530;28;20065;-77
2023/11/04 03:39:43;;;;;;;5.20;2.53;;;;;;;;;;5050338;28;20352;-76
2023/11/04 03:42:11;;;;;;;1.90;1.80;;;;;;;;;;5050968;28;20090;-78
2023/11/04 03:44:39;;;;;;;1.77;1.77;;;;;;;;;;5050014;28;20490;-76
2023/11/04 03:47:08;;;;;;;1.73;1.73;;;;;;;;;;5053083;28;20138;-77
2023/11/04 03:49:38;;;;;;;2.00;1.90;;;;;;;;;;5051800;28;20056;-77
2023/11/04 03:52:07;;;;;;;2.10;2.00;;;;;;;;;;5052970;28;20052;-77
2023/11/04 03:54:36;;;;;;;2.03;1.92;;;;;;;;;;5052520;28;20384;-76
2023/11/04 03:57:04;;;;;;;1.90;1.80;;;;;;;;;;5044565;28;20071;-76
2023/11/04 03:59:33;;;;;;;2.15;2.05;;;;;;;;;;5044830;28;20045;-77
2023/11/04 04:02:01;;;;;;;2.03;1.92;;;;;;;;;;5052746;28;20483;-77
2023/11/04 04:04:29;;;;;;;1.88;1.80;;;;;;;;;;5045005;28;20061;-77
2023/11/04 04:06:59;;;;;;;2.05;1.95;;;;;;;;;;5048378;28;20147;-77
2023/11/04 04:09:28;;;;;;;2.03;1.92;;;;;;;;;;5051391;28;20067;-77
2023/11/04 04:11:58;;;;;;;1.95;1.85;;;;;;;;;;5051484;28;20124;-76
2023/11/04 04:14:26;;;;;;;2.22;2.13;;;;;;;;;;5041280;28;20053;-76
2023/11/04 04:16:55;;;;;;;2.10;2.00;;;;;;;;;;5051550;28;20056;-77
2023/11/04 04:19:23;;;;;;;1.95;1.85;;;;;;;;;;5048401;28;20134;-77
2023/11/04 04:21:52;;;;;;;2.30;2.20;;;;;;;;;;5042091;28;20496;-76
2023/11/04 04:24:21;;;;;;;2.17;2.08;;;;;;;;;;5052536;28;20049;-77
2023/11/04 04:26:50;;;;;;;1.88;1.88;;;;;;;;;;5050446;28;20370;-77
2023/11/04 04:29:23;;;;;;;1.75;1.75;;;;;;;;;;5048143;28;20618;-77
2023/11/04 04:31:52;;;;;;;1.98;1.90;;;;;;;;;;5049298;28;20053;-77
2023/11/04 04:34:21;;;;;;;2.13;2.03;;;;;;;;;;5038891;28;20536;-77
2023/11/04 04:36:50;;;;;;;1.70;1.70;;;;;;;;;;5048720;28;20045;-77
2023/11/04 04:39:19;;;;;;;1.95;1.85;;;;;;;;;;5048219;28;20136;-77
2023/11/04 04:41:49;;;;;;;2.22;2.13;;;;;;;;;;5049176;28;20115;-76
2023/11/04 04:44:18;;;;;;;2.35;2.25;;;;;;;;;;5047905;28;20073;-77
2023/11/04 04:46:46;;;;;;;1.95;1.85;;;;;;;;;;5046540;28;20453;-77
2023/11/04 04:49:15;;;;;;;2.20;2.10;;;;;;;;;;5044022;28;20076;-77
2023/11/04 04:51:43;;;;;;;1.88;1.85;;;;;;;;;;5041788;28;20056;-76
2023/11/04 04:54:12;;;;;;;2.05;1.95;;;;;;;;;;5045137;28;20072;-76
2023/11/04 04:56:40;;;;;;;1.83;1.75;;;;;;;;;;5042390;28;20072;-76
2023/11/04 04:59:10;;;;;;;2.00;1.90;;;;;;;;;;5049560;28;20536;-76
2023/11/04 05:01:39;;;;;;;1.95;1.85;;;;;;;;;;5043235;28;20052;-76
2023/11/04 05:04:07;;;;;;;2.08;1.98;;;;;;;;;;5045813;28;20513;-77
2023/11/04 05:06:36;;;;;;;1.98;1.88;;;;;;;;;;5046791;28;20080;-78
2023/11/04 05:09:05;;;;;;;2.05;1.95;;;;;;;;;;5049929;28;20057;-76
2023/11/04 05:11:34;;;;;;;2.03;1.92;;;;;;;;;;5050635;28;20052;-76
2023/11/04 05:14:03;;;;;;;1.70;1.70;;;;;;;;;;5050195;28;20099;-77
2023/11/04 05:16:33;;;;;;;2.22;2.13;;;;;;;;;;5044296;28;20045;-76
2023/11/04 05:19:01;;;;;;;1.85;1.75;;;;;;;;;;5051034;28;20551;-77
2023/11/04 05:21:30;;;;;;;1.98;1.92;;;;;;;;;;5041367;28;20072;-77
2023/11/04 05:23:58;;;;;;;1.85;1.85;;;;;;;;;;5051089;28;20056;-76
2023/11/04 05:26:26;;;;;;;1.90;1.85;;;;;;;;;;5050818;28;20048;-76
2023/11/04 05:28:55;;;;;;;1.90;1.90;;;;;;;;;;5043195;28;20077;-76
2023/11/04 05:31:23;;;;;;;1.85;1.80;;;;;;;;;;5048425;28;20528;-77
2023/11/04 05:33:53;;;;;;;2.00;1.90;;;;;;;;;;5051216;28;20502;-76
2023/11/04 05:36:21;;;;;;;2.05;1.95;;;;;;;;;;5047883;28;20060;-78
2023/11/04 05:38:50;;;;;;;2.53;2.42;;;;;;;;;;5036035;28;20532;-78
2023/11/04 05:41:18;;;;;;;1.88;1.88;;;;;;;;;;5042355;28;20044;-77
2023/11/04 05:43:46;;;;;;;2.08;1.98;;;;;;;;;;5047319;28;20140;-79
2023/11/04 05:46:15;;;;;;;1.90;1.90;;;;;;;;;;5048539;28;20106;-77
2023/11/04 05:48:43;;;;;;;2.63;2.03;;;;;;;;;;5046910;28;20453;-76
2023/11/04 05:51:13;;;;;;;2.00;1.90;;;;;;;;;;5045566;28;20069;-77
2023/11/04 05:53:43;;;;;;;2.25;2.15;;;;;;;;;;5049500;28;20102;-74
2023/11/04 05:56:11;;;;;;;2.05;1.95;;;;;;;;;;5044748;28;20130;-77
2023/11/04 05:58:39;;;;;;;2.00;1.90;;;;;;;;;;5044556;28;20494;-76
2023/11/04 06:01:08;;;;;;;1.88;1.88;;;;;;;;;;5047049;28;20540;-77
2023/11/04 06:03:37;;;;;;;2.03;1.92;;;;;;;;;;5045602;28;20072;-77
2023/11/04 06:06:06;;;;;;;2.20;2.10;;;;;;;;;;5044732;28;20045;-76
2023/11/04 06:08:36;;;;;;;2.20;2.10;;;;;;;;;;5040967;28;20060;-77
2023/11/04 06:11:05;;;;;;;1.80;1.80;;;;;;;;;;5050333;28;20045;-77
2023/11/04 06:13:34;;;;;;;2.00;1.90;;;;;;;;;;5044647;28;20087;-77
2023/11/04 06:16:03;;;;;;;2.10;2.00;;;;;;;;;;5050171;28;20170;-76
2023/11/04 06:18:31;;;;;;;2.47;2.30;;;;;;;;;;5047562;28;20053;-77
2023/11/04 06:20:59;;;;;;;2.67;2.47;;;;;;;;;;5047978;28;20052;-77
2023/11/04 06:23:28;;;;;;;8.73;2.28;;;;;;;;;;5041819;28;20045;-76
2023/11/04 06:25:58;;;;;;;2.35;2.25;;;;;;;;;;5048995;28;20430;-75
2023/11/04 06:28:28;;;;;;;2.17;2.08;;;;;;;;;;5045396;28;20037;-76
2023/11/04 06:30:56;;;;;;;2.10;2.00;;;;;;;;;;5045541;28;20044;-76
2023/11/04 06:33:24;;;;;;;1.85;1.85;;;;;;;;;;5044854;28;20049;-76
2023/11/04 06:35:53;;;;;;;2.10;2.00;;;;;;;;;;5042736;28;20489;-76
2023/11/04 06:38:21;;;;;;;2.47;2.38;;;;;;;;;;5049029;28;20544;-76
2023/11/04 06:40:50;;;;;;;1.95;1.85;;;;;;;;;;5043625;28;20090;-74
2023/11/04 06:43:21;;;;;;;2.13;2.03;;;;;;;;;;5047616;28;20049;-77
2023/11/04 06:45:49;;;;;;;2.30;2.20;;;;;;;;;;5039268;28;20478;-75
2023/11/04 06:48:17;;;;;;;2.30;2.20;;;;;;;;;;5040559;28;20048;-78
2023/11/04 06:50:46;;;;;;;2.20;2.10;;;;;;;;;;5048710;28;20037;-78
2023/11/04 06:53:15;;;;;;;2.35;2.25;;;;;;;;;;5046478;28;20048;-76
2023/11/04 06:55:43;;;;;;;2.40;2.30;;;;;;;;;;5050880;28;20126;-75
2023/11/04 06:58:12;;;;;;;2.25;2.15;;;;;;;;;;5032910;28;20065;-78
2023/11/04 07:00:42;;;;;;;2.00;1.90;;;;;;;;;;5041966;28;20505;-78
2023/11/04 07:03:11;;;;;;;2.08;1.98;;;;;;;;;;5047377;28;20048;-77
2023/11/04 07:05:40;;;;;;;2.40;2.30;;;;;;;;;;5044148;28;20045;-77
2023/11/04 07:08:09;;;;;;;2.35;2.25;;;;;;;;;;5044947;28;20090;-77
2023/11/04 07:10:38;;;;;;;2.20;2.10;;;;;;;;;;5045986;28;20042;-78
2023/11/04 07:13:08;;;;;;;2.30;2.20;;;;;;;;;;5047691;28;20045;-78
2023/11/04 07:15:37;;;;;;;2.47;2.38;;;;;;;;;;5043904;28;20052;-77
2023/11/04 07:18:07;;;;;;;2.35;2.25;;;;;;;;;;5049800;28;20041;-77
2023/11/04 07:20:37;;;;;;;2.15;2.05;;;;;;;;;;5049538;28;20076;-77
2023/11/04 07:23:07;;;;;;;2.28;2.17;;;;;;;;;;5044244;28;20049;-78
2023/11/04 07:25:35;;;;;;;2.72;2.63;;;;;;;;;;5036730;28;20088;-78
2023/11/04 07:28:04;;;;;;;2.67;2.47;;;;;;;;;;5048152;28;20104;-78
2023/11/04 07:30:33;;;;;;;2.38;2.28;;;;;;;;;;5038709;28;20492;-79
2023/11/04 07:33:02;;;;;;;2.10;2.00;;;;;;;;;;5047074;28;20048;-77
2023/11/04 07:35:32;;;;;;;1.88;1.77;;;;;;;;;;5047482;28;20040;-77
2023/11/04 07:38:00;;;;;;;2.13;2.03;;;;;;;;;;5039521;28;20114;-78
2023/11/04 07:40:28;;;;;;;2.22;2.03;;;;;;;;;;5045460;28;20074;-78
2023/11/04 07:42:57;;;;;;;2.25;2.15;;;;;;;;;;5046330;28;20057;-79
2023/11/04 07:45:26;;;;;;;2.08;1.98;;;;;;;;;;5044041;28;20052;-78
2023/11/04 07:47:57;;;;;;;2.40;2.30;;;;;;;;;;5046806;28;20079;-78
2023/11/04 07:50:25;;;;;;;2.40;2.30;;;;;;;;;;5044402;28;20048;-75
2023/11/04 07:52:55;;;;;;;2.38;2.28;;;;;;;;;;5044952;28;20521;-77
2023/11/04 07:55:26;;;;;;;2.67;2.58;;;;;;;;;;5042082;28;20056;-76
2023/11/04 07:57:55;;;;;;;2.10;2.00;;;;;;;;;;5048001;28;20132;-75
2023/11/04 08:00:23;;;;;;;2.95;2.22;;;;;;;;;;5039078;28;20045;-74
2023/11/04 08:02:52;;;;;;;2.00;1.90;;;;;;;;;;5043064;28;20462;-77
2023/11/04 08:05:20;;;;;;;2.35;2.25;;;;;;;;;;5043366;28;20053;-76
2023/11/04 08:07:49;;;;;;;2.25;2.15;;;;;;;;;;5045106;28;20045;-75
2023/11/04 08:10:19;;;;;;;2.45;2.35;;;;;;;;;;5044797;28;20107;-75
2023/11/04 08:12:47;;;;;;;2.40;2.30;;;;;;;;;;5039572;28;20080;-75
2023/11/04 08:15:15;;;;;;;2.28;2.17;;;;;;;;;;5037463;28;20540;-75
2023/11/04 08:17:44;;;;;;;2.22;2.13;;;;;;;;;;5032188;28;20072;-75
2023/11/04 08:20:13;;;;;;;2.05;1.95;;;;;;;;;;5044141;28;20183;-74
2023/11/04 08:22:42;;;;;;;2.35;2.25;;;;;;;;;;5050619;28;20040;-75
2023/11/04 08:25:10;;;;;;;2.38;2.28;;;;;;;;;;5042329;28;20111;-75
2023/11/04 08:27:40;;;;;;;2.20;2.10;;;;;;;;;;5048026;28;20129;-75
2023/11/04 08:30:09;;;;;;;2.13;2.03;;;;;;;;;;5047398;28;20057;-76
2023/11/04 08:32:38;;;;;;;2.00;1.90;;;;;;;;;;5049052;28;20045;-74
2023/11/04 08:35:06;;;;;;;2.40;2.30;;;;;;;;;;5035811;28;20045;-73
2023/11/04 08:37:35;;;;;;;2.22;2.13;;;;;;;;;;5044581;28;20064;-73
2023/11/04 08:40:04;;;;;;;2.40;2.30;;;;;;;;;;5043965;28;20061;-73
2023/11/04 08:42:33;;;;;;;1.92;1.83;;;;;;;;;;5049304;28;20052;-74
2023/11/04 08:45:03;;;;;;;2.30;2.20;;;;;;;;;;5047783;28;20581;-73
2023/11/04 08:47:32;;;;;;;1.98;1.88;;;;;;;;;;5042144;28;20065;-71
2023/11/04 08:50:01;;;;;;;2.50;2.40;;;;;;;;;;5045442;28;20053;-72
2023/11/04 08:52:30;;;;;;;2.00;1.90;;;;;;;;;;5049285;28;20047;-72
2023/11/04 08:55:01;;;;;;;2.00;1.90;;;;;;;;;;5045082;28;20123;-73
2023/11/04 08:57:29;;;;;;;1.90;1.88;;;;;;;;;;5044928;28;20087;-70
2023/11/04 08:59:58;;;;;;;2.08;1.98;;;;;;;;;;5044083;28;20411;-74
2023/11/04 09:02:28;;;;;;;2.17;2.08;;;;;;;;;;5047169;28;20068;-73
2023/11/04 09:04:56;;;;;;;2.17;2.08;;;;;;;;;;5048569;28;20063;-72
2023/11/04 09:07:34;;;;;;;1.98;1.85;;;;;;;;;;5043743;28;20153;-69
2023/11/04 09:10:03;;;;;;;1.98;1.88;;;;;;;;;;5047387;28;20092;-73
2023/11/04 09:12:31;;;;;;;1.67;1.67;;;;;;;;;;5044560;28;20128;-71
2023/11/04 09:15:01;;;;;;;1.70;1.70;;;;;;;;;;5043321;28;20548;-72
2023/11/04 09:17:31;;;;;;;1.85;1.75;;;;;;;;;;5048494;28;20041;-73
2023/11/04 09:19:59;;;;;;;1.90;1.80;;;;;;;;;;5044119;28;20168;-72
2023/11/04 09:22:28;;;;;;;2.20;2.10;;;;;;;;;;5047689;28;20421;-78
2023/11/04 09:24:56;;;;;;;1.70;1.70;;;;;;;;;;5040764;28;20051;-77
2023/11/04 09:27:24;;;;;;;1.88;1.77;;;;;;;;;;5043323;28;20060;-78
2023/11/04 09:29:53;;;;;;;1.70;1.60;;;;;;;;;;5042183;28;20049;-66
2023/11/04 09:32:21;;;;;;;1.60;1.60;;;;;;;;;;5048552;28;20526;-66
2023/11/04 09:34:51;;;;;;;1.83;1.73;;;;;;;;;;5043473;28;20091;-66
2023/11/04 09:37:21;;;;;;;1.58;1.55;;;;;;;;;;5036385;28;20521;-68
2023/11/04 09:39:49;;;;;;;1.85;1.80;;;;;;;;;;5042365;28;20111;-66
2023/11/04 09:42:18;;;;;;;1.63;1.63;;;;;;;;;;5048203;28;20125;-67
2023/11/04 09:44:46;;;;;;;1.70;1.70;;;;;;;;;;5046142;28;20049;-68
2023/11/04 09:47:15;;;;;;;1.40;1.40;;;;;;;;;;5045787;28;20044;-66
2023/11/04 09:49:43;;;;;;;1.60;1.60;;;;;;;;;;5039346;28;20056;-64
2023/11/04 09:52:15;;;;;;;1.80;1.70;;;;;;;;;;5044061;28;20049;-69
2023/11/04 09:54:45;;;;;;;1.80;1.70;;;;;;;;;;5044251;28;20489;-68
2023/11/04 09:57:14;;;;;;;2.08;1.98;;;;;;;;;;5047111;28;20382;-64
2023/11/04 09:59:43;;;;;;;1.63;1.63;;;;;;;;;;5037018;28;20053;-65
2023/11/04 10:02:11;;;;;;;1.80;1.70;;;;;;;;;;5044740;28;20048;-67
2023/11/04 10:04:40;;;;;;;1.60;1.60;;;;;;;;;;5035265;28;20052;-67
2023/11/04 10:07:09;;;;;;;1.80;1.70;;;;;;;;;;5029609;28;20041;-64
2023/11/04 10:09:39;;;;;;;1.90;1.80;;;;;;;;;;5045487;28;20132;-67
2023/11/04 10:12:08;;;;;;;1.92;1.83;;;;;;;;;;5043452;28;20155;-69
2023/11/04 10:14:37;;;;;;;2.00;1.90;;;;;;;;;;5046273;28;20072;-64
2023/11/04 10:17:06;;;;;;;1.80;1.70;;;;;;;;;;5048850;28;20796;-67
2023/11/04 10:19:35;;;;;;;1.58;1.58;;;;;;;;;;5047242;28;20052;-66
2023/11/04 10:22:04;;;;;;;1.90;1.80;;;;;;;;;;5048718;28;20049;-65
2023/11/04 10:24:33;;;;;;;1.67;1.67;;;;;;;;;;5046144;28;20482;-65
2023/11/04 10:27:03;;;;;;;1.60;1.60;;;;;;;;;;5045242;28;20049;-65
2023/11/04 10:29:33;;;;;;;1.90;1.80;;;;;;;;;;5046105;28;20049;-64
2023/11/04 10:32:02;;;;;;;1.70;1.60;;;;;;;;;;5045898;28;20052;-65
2023/11/04 10:34:33;;;;;;;2.08;1.98;;;;;;;;;;5048392;28;20080;-65
2023/11/04 10:37:03;;;;;;;1.83;1.80;;;;;;;;;;5045242;28;20075;-65
2023/11/04 10:39:44;;;;;;;1.92;1.83;;;;;;;;;;5056033;28;20061;-66
2023/11/04 10:42:15;;;;;;;1.80;1.70;;;;;;;;;;5040311;28;20188;-68
2023/11/04 10:44:48;;;;;;;1.70;1.70;;;;;;;;;;5042115;28;20048;-62
2023/11/04 10:47:20;;;;;;;1.90;1.80;;;;;;;;;;5045270;28;20041;-59
2023/11/04 10:49:56;;;;;;;1.88;1.77;;;;;;;;;;5046790;28;20048;-58
2023/11/04 10:52:29;;;;;;;1.80;1.70;;;;;;;;;;5045916;28;20464;-61
2023/11/04 10:55:10;;;;;;;1.70;1.60;;;;;;;;;;5041141;28;20122;-60
2023/11/04 10:57:41;;;;;;;1.63;1.63;;;;;;;;;;5042757;28;20041;-58
2023/11/04 11:00:13;;;;;;;1.90;1.80;;;;;;;;;;5040036;28;20052;-62
2023/11/04 11:02:43;;;;;;;1.60;1.60;;;;;;;;;;5042540;28;20049;-60
2023/11/04 11:05:12;;;;;;;1.50;1.50;;;;;;;;;;5046714;28;20076;-64
2023/11/04 11:07:41;;;;;;;1.70;1.60;;;;;;;;;;5043303;28;20833;-60
2023/11/04 11:10:10;;;;;;;1.80;1.70;;;;;;;;;;5040982;28;20575;-61
2023/11/04 11:12:41;;;;;;;1.73;1.73;;;;;;;;;;5045954;28;20049;-59
2023/11/04 11:15:11;;;;;;;1.90;1.80;;;;;;;;;;5042881;28;20429;-63
2023/11/04 11:17:40;;;;;;;1.83;1.73;;;;;;;;;;5046313;28;20071;-62
2023/11/04 11:20:27;;;;;;;1.60;1.60;;;;;;;;;;5045529;28;20148;-60
2023/11/04 11:22:57;;;;;;;1.70;1.60;;;;;;;;;;5039171;28;20059;-59
2023/11/04 11:25:32;;;;;;;1.60;1.60;;;;;;;;;;5045472;28;20153;-60
2023/11/04 11:28:02;;;;;;;1.98;1.88;;;;;;;;;;5047722;28;20081;-60
2023/11/04 11:30:36;;;;;;;1.85;1.77;;;;;;;;;;5040814;28;20567;-60
2023/11/04 11:33:08;;;;;;;1.40;1.40;;;;;;;;;;5048073;28;20111;-61
2023/11/04 11:35:58;;;;;;;1.60;1.60;;;;;;;;;;5045871;28;20737;-61
2023/11/04 11:38:27;;;;;;;1.83;1.73;;;;;;;;;;5045134;28;20087;-62
2023/11/04 11:40:55;;;;;;;1.67;1.58;;;;;;;;;;5041885;28;20052;-61
2023/11/04 11:43:24;;;;;;;1.50;1.50;;;;;;;;;;5045455;28;20061;-60
2023/11/04 11:45:54;;;;;;;1.60;1.50;;;;;;;;;;5046337;28;20079;-59
2023/11/04 11:48:23;;;;;;;1.95;1.85;;;;;;;;;;5042972;28;20045;-62
2023/11/04 11:50:52;;;;;;;2.17;1.70;;;;;;;;;;5037258;28;20049;-61
2023/11/04 11:53:22;;;;;;;1.60;1.60;;;;;;;;;;5051070;28;20472;-60
2023/11/04 11:55:57;;;;;;;1.60;1.60;;;;;;;;;;5048736;28;20046;-63
2023/11/04 11:58:26;;;;;;;1.90;1.60;;;;;;;;;;5050355;28;20049;-63
2023/11/04 12:00:57;;;;;;;1.67;1.58;;;;;;;;;;5048989;28;20052;-62
2023/11/04 12:03:26;;;;;;;1.77;1.75;;;;;;;;;;5051384;28;20060;-65
2023/11/04 12:05:54;;;;;;;1.83;1.73;;;;;;;;;;5049274;28;20041;-59
2023/11/04 12:08:23;;;;;;;1.63;1.52;;;;;;;;;;5046102;28;20429;-59
2023/11/04 12:10:51;;;;;;;1.50;1.50;;;;;;;;;;5048421;28;20071;-63
2023/11/04 12:13:20;;;;;;;1.67;1.67;;;;;;;;;;5048485;28;20045;-61
2023/11/04 12:15:50;;;;;;;1.67;1.60;;;;;;;;;;5050632;28;20041;-63
2023/11/04 12:18:20;;;;;;;1.55;1.55;;;;;;;;;;5044925;28;20051;-60
2023/11/04 12:20:48;;;;;;;1.77;1.67;;;;;;;;;;5045024;28;20042;-61
2023/11/04 12:23:17;;;;;;;1.60;1.60;;;;;;;;;;5047989;28;20120;-64
2023/11/04 12:25:46;;;;;;;1.50;1.50;;;;;;;;;;5048994;28;20107;-63
2023/11/04 12:28:14;;;;;;;1.50;1.50;;;;;;;;;;5045381;28;20094;-62
2023/11/04 12:30:43;;;;;;;1.60;1.60;;;;;;;;;;5042375;28;20128;-62
2023/11/04 12:33:11;;;;;;;1.40;1.40;;;;;;;;;;5051499;28;20052;-61
2023/11/04 12:35:42;;;;;;;1.45;1.45;;;;;;;;;;5041560;28;20512;-67
2023/11/04 12:38:15;;;;;;;1.40;1.40;;;;;;;;;;5040909;28;20041;-61
2023/11/04 12:40:43;;;;;;;1.73;1.63;;;;;;;;;;5048915;28;20405;-62
2023/11/04 12:43:12;;;;;;;1.50;1.50;;;;;;;;;;5043985;28;20413;-63
2023/11/04 12:45:42;;;;;;;1.50;1.50;;;;;;;;;;5052735;28;20485;-62
2023/11/04 12:48:10;;;;;;;1.80;1.70;;;;;;;;;;5052022;28;20045;-62
2023/11/04 12:50:39;;;;;;;2.33;1.50;;;;;;;;;;5051203;28;20045;-61
2023/11/04 12:53:09;;;;;;;1.50;1.50;;;;;;;;;;5051808;28;20049;-65
2023/11/04 12:55:37;;;;;;;1.45;1.45;;;;;;;;;;5046292;28;20045;-66
2023/11/04 12:58:06;;;;;;;1.60;1.50;;;;;;;;;;5046813;28;20132;-61
2023/11/04 13:00:37;;;;;;;1.60;1.60;;;;;;;;;;5049137;28;20041;-62
2023/11/04 13:03:06;;;;;;;1.55;1.45;;;;;;;;;;5035265;28;20053;-63
2023/11/04 13:05:34;;;;;;;1.70;1.60;;;;;;;;;;5045729;28;20045;-60
2023/11/04 13:08:04;;;;;;;1.58;1.58;;;;;;;;;;5042593;28;20045;-65
2023/11/04 13:10:34;;;;;;;1.52;1.52;;;;;;;;;;5050113;28;20456;-59
2023/11/04 13:13:02;;;;;;;1.48;1.48;;;;;;;;;;5045965;28;20057;-64
2023/11/04 13:15:31;;;;;;;1.50;1.50;;;;;;;;;;5045168;28;20045;-64
2023/11/04 13:17:59;;;;;;;1.77;1.67;;;;;;;;;;5049130;28;20568;-61
2023/11/04 13:20:28;;;;;;;1.80;1.70;;;;;;;;;;5049648;28;20041;-63
2023/11/04 13:22:56;;;;;;;1.70;1.60;;;;;;;;;;5048290;28;20049;-59
2023/11/04 13:25:25;;;;;;;1.65;1.58;;;;;;;;;;5051504;28;20049;-61
2023/11/04 13:27:55;;;;;;;1.63;1.52;;;;;;;;;;5040724;28;20049;-61
2023/11/04 13:30:23;;;;;;;1.58;1.58;;;;;;;;;;5045649;28;20049;-62
2023/11/04 13:32:52;;;;;;;1.70;1.60;;;;;;;;;;5046657;28;20041;-63
2023/11/04 13:35:21;;;;;;;1.90;1.80;;;;;;;;;;5046734;28;20049;-61
2023/11/04 13:37:50;;;;;;;1.50;1.50;;;;;;;;;;5044576;28;20053;-61
2023/11/04 13:40:18;;;;;;;1.90;1.80;;;;;;;;;;5050103;28;20579;-61
2023/11/04 13:42:47;;;;;;;1.60;1.50;;;;;;;;;;5047391;28;20049;-64
2023/11/04 13:45:18;;;;;;;1.65;1.65;;;;;;;;;;5050753;28;20045;-60
2023/11/04 13:47:47;;;;;;;1.90;1.80;;;;;;;;;;5046224;28;20061;-61
2023/11/04 13:50:18;;;;;;;1.40;1.40;;;;;;;;;;5045829;28;20060;-63
2023/11/04 13:52:47;;;;;;;1.55;1.55;;;;;;;;;;5041862;28;20053;-60
2023/11/04 13:55:15;;;;;;;1.63;1.60;;;;;;;;;;5043862;28;20456;-64
2023/11/04 13:57:44;;;;;;;1.80;1.70;;;;;;;;;;5038610;28;20110;-62
2023/11/04 14:00:12;;;;;;;1.92;1.63;;;;;;;;;;5043711;28;20053;-62
2023/11/04 14:02:42;;;;;;;1.50;1.50;;;;;;;;;;5045343;28;20055;-62
2023/11/04 14:05:11;;;;;;;1.83;1.73;;;;;;;;;;5044924;28;20045;-63
2023/11/04 14:07:39;;;;;;;1.80;1.70;;;;;;;;;;5043719;28;20267;-61
2023/11/04 14:10:09;;;;;;;1.80;1.70;;;;;;;;;;5042979;28;20061;-63
2023/11/04 14:12:37;;;;;;;1.50;1.50;;;;;;;;;;5038287;28;20721;-61
2023/11/04 14:15:06;;;;;;;1.77;1.67;;;;;;;;;;5042236;28;20049;-64
2023/11/04 14:17:37;;;;;;;1.52;1.52;;;;;;;;;;5042965;28;20041;-63
2023/11/04 14:20:07;;;;;;;1.75;1.70;;;;;;;;;;5045852;28;20041;-62
2023/11/04 14:22:36;;;;;;;1.58;1.58;;;;;;;;;;5045250;28;20453;-61
2023/11/04 14:25:05;;;;;;;1.45;1.40;;;;;;;;;;5044228;28;20045;-60
2023/11/04 14:27:34;;;;;;;1.55;1.55;;;;;;;;;;5040440;28;20048;-65
2023/11/04 14:30:04;;;;;;;1.50;1.50;;;;;;;;;;5042782;28;20049;-64
2023/11/04 14:32:33;;;;;;;1.67;1.67;;;;;;;;;;5046793;28;20399;-62
2023/11/04 14:35:02;;;;;;;1.60;1.50;;;;;;;;;;5044221;28;20072;-64
2023/11/04 14:37:31;;;;;;;3.28;1.60;;;;;;;;;;5040926;28;20052;-63
2023/11/04 14:40:00;;;;;;;1.50;1.50;;;;;;;;;;5042980;28;20072;-63
2023/11/04 14:42:29;;;;;;;1.75;1.70;;;;;;;;;;5036552;28;20049;-67
2023/11/04 14:44:57;;;;;;;1.73;1.65;;;;;;;;;;5045717;28;20041;-65
2023/11/04 14:47:26;;;;;;;2.38;1.63;;;;;;;;;;5038759;28;20049;-62
2023/11/04 14:49:55;;;;;;;1.70;1.70;;;;;;;;;;5046319;28;20048;-64
2023/11/04 14:52:25;;;;;;;1.80;1.70;;;;;;;;;;5037663;28;20048;-63
2023/11/04 14:54:55;;;;;;;1.88;1.77;;;;;;;;;;5035296;28;20530;-62